createdAt,value
2023-10-26T13:10:48.580Z,97749.47
2023-10-26T13:13:17.750Z,97745.81
2023-10-26T13:15:45.526Z,97744.28
2023-10-26T13:18:13.352Z,97732.50
2023-10-26T13:20:41.883Z,97728.19
2023-10-26T13:23:09.814Z,97726.88
2023-10-26T13:25:40.189Z,97719.28
2023-10-26T13:28:07.988Z,97720.06
2023-10-26T13:30:37.131Z,97723.13
2023-10-26T13:33:06.557Z,97715.16
2023-10-26T13:35:35.527Z,97711.03
2023-10-26T13:38:03.394Z,97713.00
2023-10-26T13:40:31.228Z,97709.66
2023-10-26T13:42:59.204Z,97708.28
2023-10-26T13:45:26.910Z,97702.44
2023-10-26T13:47:56.030Z,97702.22
2023-10-26T13:50:23.772Z,97711.72
2023-10-26T13:52:51.676Z,97711.72
2023-10-26T13:55:19.628Z,97703.97
2023-10-26T13:57:47.379Z,97705.97
2023-10-26T14:00:16.049Z,97703.91
2023-10-26T14:02:43.860Z,97708.81
2023-10-26T14:05:29.718Z,97700.16
2023-10-26T14:07:58.669Z,97703.00
2023-10-26T14:10:27.178Z,97710.97
2023-10-26T14:12:54.948Z,97704.44
2023-10-26T14:15:22.933Z,97703.06
2023-10-26T14:17:50.656Z,97710.63
2023-10-26T14:20:19.806Z,97707.88
2023-10-26T14:22:48.134Z,97709.81
2023-10-26T14:25:16.081Z,97704.66
2023-10-26T14:27:43.847Z,97699.84
2023-10-26T14:30:12.682Z,97689.81
2023-10-26T14:32:40.488Z,97692.28
2023-10-26T14:35:08.663Z,97702.16
2023-10-26T14:37:37.762Z,97694.88
2023-10-26T14:40:06.488Z,97690.28
2023-10-26T14:42:34.428Z,97699.00
2023-10-26T14:45:02.441Z,97684.81
2023-10-26T14:47:30.390Z,97676.31
2023-10-26T14:49:58.081Z,97682.91
2023-10-26T14:52:25.846Z,97683.00
2023-10-26T14:54:55.042Z,97691.78
2023-10-26T14:57:22.743Z,97687.34
2023-10-26T14:59:50.527Z,97688.28
2023-10-26T15:02:18.379Z,97682.22
